Toast, NC (27049)

10:59 PM EDT on August 28, 2016 (GMT -0400)
Mt. Airy, NC | | Change Station

Elev 1197 ft 36.52 °N, 80.64 °W | Updated 1 second ago

Clear
Clear
68.3 °F
Feels Like 68.3 °F
N
0.0
Wind Variable Wind from NW
Gusts 0.0 mph

Today
High -- | Low -- °F
--% Chance of Precip.
Yesterday
High -- | Low -- °F
Precip. -- in
Pressure 30.22 in
Visibility 10.0 miles
Clouds Clear
Dew Point 66 °F
Humidity 92%
Rainfall 0.00 in
Snow Depth Not available.
6:51 AM 7:55 PM
Waning Crescent, 11% visible
METAR KMWK 290240Z AUTO 00000KT 10SM CLR 21/20 A3022 RMK AO2 T02140195
Pressure 30.22 in
Visibility 10.0 miles
Clouds Clear
Dew Point 66 °F
Humidity 92%
Rainfall 0.00 in
Snow Depth Not available.
6:51 AM 7:55 PM
Waning Crescent, 11% visible
METAR KMWK 290240Z AUTO 00000KT 10SM CLR 21/20 A3022 RMK AO2 T02140195

10-Day Weather Forecast

Almanac

Astronomy

Aug. 28, 2016 Rise Set
Actual Time
Civil Twilight
Nautical Twilight
Astronomical Twilight
Moon
Length of Visible Light
Length of Day
Tomorrow will be .
, % of the Moon is Illuminated

Today's Extremes

State Highs State Lows

Community

WunderPhotos

Upload Photos

1,935,780 photos uploaded!

WunderBlog® & News

Nearby

Air Quality

  Air Quality AQ Index Pollutant
Not available.

Snow Depth

Station Depth Elevation

Earthquake Activity

City Distance Mag. Time & Date
Minimum magnitude displayed is 2.5.

Coastal Water Temperatures

Place Temperature

Stations

Nearby Weather Stations

Station Location Temp. Windchill Dew Point Humidity Wind Precip. Elev Updated Type
                   

Watches & Warnings

There are currently no watches in effect.